sensor_id;sensor_type;location;lat;lon;timestamp;temperature;humidity
74901;DHT22;63461;51.416;6.758;2022-11-20T00:00:29;2.50;99.90
74901;DHT22;63461;51.416;6.758;2022-11-20T00:02:55;2.60;99.90
74901;DHT22;63461;51.416;6.758;2022-11-20T00:05:21;2.70;99.90
74901;DHT22;63461;51.416;6.758;2022-11-20T00:07:46;2.60;99.90
74901;DHT22;63461;51.416;6.758;2022-11-20T00:10:12;2.60;99.90
74901;DHT22;63461;51.416;6.758;2022-11-20T00:12:38;2.60;99.90
74901;DHT22;63461;51.416;6.758;2022-11-20T00:15:04;2.60;99.90
74901;DHT22;63461;51.416;6.758;2022-11-20T00:17:30;2.60;99.90
74901;DHT22;63461;51.416;6.758;2022-11-20T00:19:56;2.60;99.90
74901;DHT22;63461;51.416;6.758;2022-11-20T00:22:21;2.60;99.90
74901;DHT22;63461;51.416;6.758;2022-11-20T00:24:47;2.60;99.90
74901;DHT22;63461;51.416;6.758;2022-11-20T00:27:13;2.50;99.90
74901;DHT22;63461;51.416;6.758;2022-11-20T00:29:38;2.60;99.90
74901;DHT22;63461;51.416;6.758;2022-11-20T00:32:04;2.60;99.90
74901;DHT22;63461;51.416;6.758;2022-11-20T00:34:30;2.60;99.90
74901;DHT22;63461;51.416;6.758;2022-11-20T00:36:55;2.60;99.90
74901;DHT22;63461;51.416;6.758;2022-11-20T00:39:21;2.60;99.90
74901;DHT22;63461;51.416;6.758;2022-11-20T00:41:47;2.70;99.90
74901;DHT22;63461;51.416;6.758;2022-11-20T00:44:12;2.70;99.90
74901;DHT22;63461;51.416;6.758;2022-11-20T00:46:38;2.60;99.90
74901;DHT22;63461;51.416;6.758;2022-11-20T00:49:04;2.50;99.90
74901;DHT22;63461;51.416;6.758;2022-11-20T00:51:30;2.50;99.90
74901;DHT22;63461;51.416;6.758;2022-11-20T00:53:58;2.50;99.90
74901;DHT22;63461;51.416;6.758;2022-11-20T00:56:26;2.50;99.90
74901;DHT22;63461;51.416;6.758;2022-11-20T00:58:51;2.50;99.90
74901;DHT22;63461;51.416;6.758;2022-11-20T01:01:22;2.50;99.90
74901;DHT22;63461;51.416;6.758;2022-11-20T01:03:53;2.50;99.90
74901;DHT22;63461;51.416;6.758;2022-11-20T01:06:22;2.50;99.90
74901;DHT22;63461;51.416;6.758;2022-11-20T01:08:49;2.50;99.90
74901;DHT22;63461;51.416;6.758;2022-11-20T01:11:17;2.40;99.90
74901;DHT22;63461;51.416;6.758;2022-11-20T01:13:44;2.50;99.90
74901;DHT22;63461;51.416;6.758;2022-11-20T01:16:13;2.50;99.90
74901;DHT22;63461;51.416;6.758;2022-11-20T01:18:42;2.50;99.90
74901;DHT22;63461;51.416;6.758;2022-11-20T01:21:11;2.60;99.90
74901;DHT22;63461;51.416;6.758;2022-11-20T01:23:39;2.60;99.90
74901;DHT22;63461;51.416;6.758;2022-11-20T01:26:07;2.60;99.90
74901;DHT22;63461;51.416;6.758;2022-11-20T01:28:33;2.60;99.90
74901;DHT22;63461;51.416;6.758;2022-11-20T01:31:00;2.60;99.90
74901;DHT22;63461;51.416;6.758;2022-11-20T01:33:26;2.80;99.90
74901;DHT22;63461;51.416;6.758;2022-11-20T01:35:52;2.70;99.90
74901;DHT22;63461;51.416;6.758;2022-11-20T01:38:19;2.80;99.90
74901;DHT22;63461;51.416;6.758;2022-11-20T01:40:55;2.90;99.90
74901;DHT22;63461;51.416;6.758;2022-11-20T01:43:21;2.90;99.90
74901;DHT22;63461;51.416;6.758;2022-11-20T01:48:24;3.00;99.90
74901;DHT22;63461;51.416;6.758;2022-11-20T01:50:52;2.90;99.90
74901;DHT22;63461;51.416;6.758;2022-11-20T01:53:22;3.00;99.90
74901;DHT22;63461;51.416;6.758;2022-11-20T01:55:53;3.10;99.90
74901;DHT22;63461;51.416;6.758;2022-11-20T01:58:23;3.00;99.90
74901;DHT22;63461;51.416;6.758;2022-11-20T02:00:51;3.00;99.90
74901;DHT22;63461;51.416;6.758;2022-11-20T02:03:19;3.00;99.90
74901;DHT22;63461;51.416;6.758;2022-11-20T02:06:01;3.00;99.90
74901;DHT22;63461;51.416;6.758;2022-11-20T02:08:29;3.10;99.90
74901;DHT22;63461;51.416;6.758;2022-11-20T02:10:56;3.10;99.90
74901;DHT22;63461;51.416;6.758;2022-11-20T02:13:21;3.10;99.90
74901;DHT22;63461;51.416;6.758;2022-11-20T02:16:10;3.10;99.90
74901;DHT22;63461;51.416;6.758;2022-11-20T02:18:37;3.10;99.90
74901;DHT22;63461;51.416;6.758;2022-11-20T02:21:19;3.20;99.90
74901;DHT22;63461;51.416;6.758;2022-11-20T02:24:01;3.10;99.90
74901;DHT22;63461;51.416;6.758;2022-11-20T02:26:31;3.20;99.90
74901;DHT22;63461;51.416;6.758;2022-11-20T02:28:59;3.20;99.90
74901;DHT22;63461;51.416;6.758;2022-11-20T02:31:26;3.20;99.90
74901;DHT22;63461;51.416;6.758;2022-11-20T02:33:56;3.10;99.90
74901;DHT22;63461;51.416;6.758;2022-11-20T02:36:24;3.20;99.90
74901;DHT22;63461;51.416;6.758;2022-11-20T02:38:51;3.20;99.90
74901;DHT22;63461;51.416;6.758;2022-11-20T02:41:16;3.20;99.90
74901;DHT22;63461;51.416;6.758;2022-11-20T02:43:42;3.30;99.90
74901;DHT22;63461;51.416;6.758;2022-11-20T02:46:08;3.20;99.90
74901;DHT22;63461;51.416;6.758;2022-11-20T02:48:34;3.30;99.90
74901;DHT22;63461;51.416;6.758;2022-11-20T02:51:00;3.30;99.90
74901;DHT22;63461;51.416;6.758;2022-11-20T02:53:25;3.30;99.90
74901;DHT22;63461;51.416;6.758;2022-11-20T02:55:51;3.30;99.90
74901;DHT22;63461;51.416;6.758;2022-11-20T02:58:17;3.30;99.90
74901;DHT22;63461;51.416;6.758;2022-11-20T03:00:43;3.30;99.90
74901;DHT22;63461;51.416;6.758;2022-11-20T03:03:09;3.40;99.90
74901;DHT22;63461;51.416;6.758;2022-11-20T03:05:34;3.40;99.90
74901;DHT22;63461;51.416;6.758;2022-11-20T03:08:00;3.40;99.90
74901;DHT22;63461;51.416;6.758;2022-11-20T03:10:26;3.40;99.90
74901;DHT22;63461;51.416;6.758;2022-11-20T03:12:55;3.50;99.90
74901;DHT22;63461;51.416;6.758;2022-11-20T03:15:22;3.40;99.90
74901;DHT22;63461;51.416;6.758;2022-11-20T03:17:48;3.40;99.90
74901;DHT22;63461;51.416;6.758;2022-11-20T03:20:14;3.50;99.90
74901;DHT22;63461;51.416;6.758;2022-11-20T03:22:40;3.50;99.90
74901;DHT22;63461;51.416;6.758;2022-11-20T03:25:06;3.50;99.90
74901;DHT22;63461;51.416;6.758;2022-11-20T03:27:33;3.50;99.90
74901;DHT22;63461;51.416;6.758;2022-11-20T03:30:00;3.50;99.90
74901;DHT22;63461;51.416;6.758;2022-11-20T03:32:25;3.40;99.90
74901;DHT22;63461;51.416;6.758;2022-11-20T03:34:51;3.50;99.90
74901;DHT22;63461;51.416;6.758;2022-11-20T03:37:17;3.50;99.90
74901;DHT22;63461;51.416;6.758;2022-11-20T03:39:43;3.60;99.90
74901;DHT22;63461;51.416;6.758;2022-11-20T03:42:09;3.60;99.90
74901;DHT22;63461;51.416;6.758;2022-11-20T03:44:54;3.50;99.90
74901;DHT22;63461;51.416;6.758;2022-11-20T03:47:21;3.70;99.90
74901;DHT22;63461;51.416;6.758;2022-11-20T03:49:47;3.60;99.90
74901;DHT22;63461;51.416;6.758;2022-11-20T03:52:12;3.60;99.90
74901;DHT22;63461;51.416;6.758;2022-11-20T03:54:38;3.70;99.90
74901;DHT22;63461;51.416;6.758;2022-11-20T03:57:04;3.70;99.90
74901;DHT22;63461;51.416;6.758;2022-11-20T03:59:30;3.70;99.90
74901;DHT22;63461;51.416;6.758;2022-11-20T04:01:55;3.80;99.90
74901;DHT22;63461;51.416;6.758;2022-11-20T04:04:21;3.80;99.90
74901;DHT22;63461;51.416;6.758;2022-11-20T04:06:47;3.90;99.90
74901;DHT22;63461;51.416;6.758;2022-11-20T04:09:13;3.90;99.90
74901;DHT22;63461;51.416;6.758;2022-11-20T04:11:40;3.90;99.90
74901;DHT22;63461;51.416;6.758;2022-11-20T04:14:13;3.90;99.90
74901;DHT22;63461;51.416;6.758;2022-11-20T04:16:39;3.90;99.90
74901;DHT22;63461;51.416;6.758;2022-11-20T04:19:08;4.00;99.90
74901;DHT22;63461;51.416;6.758;2022-11-20T04:21:35;4.00;99.90
74901;DHT22;63461;51.416;6.758;2022-11-20T04:24:01;3.90;99.90
74901;DHT22;63461;51.416;6.758;2022-11-20T04:26:28;4.00;99.90
74901;DHT22;63461;51.416;6.758;2022-11-20T04:28:54;4.00;99.90
74901;DHT22;63461;51.416;6.758;2022-11-20T04:31:22;3.90;99.90
74901;DHT22;63461;51.416;6.758;2022-11-20T04:33:48;3.90;99.90
74901;DHT22;63461;51.416;6.758;2022-11-20T04:36:16;3.90;99.90
74901;DHT22;63461;51.416;6.758;2022-11-20T04:38:42;3.90;99.90
74901;DHT22;63461;51.416;6.758;2022-11-20T04:41:16;3.80;99.90
74901;DHT22;63461;51.416;6.758;2022-11-20T04:43:46;3.80;99.90
74901;DHT22;63461;51.416;6.758;2022-11-20T04:46:12;4.00;99.90
74901;DHT22;63461;51.416;6.758;2022-11-20T04:48:38;4.00;99.90
74901;DHT22;63461;51.416;6.758;2022-11-20T04:51:04;4.00;99.90
74901;DHT22;63461;51.416;6.758;2022-11-20T04:53:30;4.00;99.90
74901;DHT22;63461;51.416;6.758;2022-11-20T04:56:03;4.00;99.90
74901;DHT22;63461;51.416;6.758;2022-11-20T04:58:30;4.00;99.90
74901;DHT22;63461;51.416;6.758;2022-11-20T05:01:12;4.00;99.90
74901;DHT22;63461;51.416;6.758;2022-11-20T05:03:39;3.90;99.90
74901;DHT22;63461;51.416;6.758;2022-11-20T05:06:06;4.00;99.90
74901;DHT22;63461;51.416;6.758;2022-11-20T05:08:33;4.00;99.90
74901;DHT22;63461;51.416;6.758;2022-11-20T05:11:07;3.90;99.90
74901;DHT22;63461;51.416;6.758;2022-11-20T05:13:34;4.00;99.90
74901;DHT22;63461;51.416;6.758;2022-11-20T05:16:10;4.00;99.90
74901;DHT22;63461;51.416;6.758;2022-11-20T05:18:37;4.00;99.90
74901;DHT22;63461;51.416;6.758;2022-11-20T05:21:03;3.90;99.90
74901;DHT22;63461;51.416;6.758;2022-11-20T05:23:30;4.00;99.90
74901;DHT22;63461;51.416;6.758;2022-11-20T05:25:57;4.00;99.90
74901;DHT22;63461;51.416;6.758;2022-11-20T05:28:23;4.00;99.90
74901;DHT22;63461;51.416;6.758;2022-11-20T05:30:49;3.90;99.90
74901;DHT22;63461;51.416;6.758;2022-11-20T05:33:15;3.90;99.90
74901;DHT22;63461;51.416;6.758;2022-11-20T05:35:41;4.00;99.90
74901;DHT22;63461;51.416;6.758;2022-11-20T05:38:07;3.90;99.90
74901;DHT22;63461;51.416;6.758;2022-11-20T05:40:33;4.00;99.90
74901;DHT22;63461;51.416;6.758;2022-11-20T05:42:59;4.00;99.90
74901;DHT22;63461;51.416;6.758;2022-11-20T05:45:25;4.00;99.90
74901;DHT22;63461;51.416;6.758;2022-11-20T05:47:51;4.10;99.90
74901;DHT22;63461;51.416;6.758;2022-11-20T05:50:17;4.00;99.90
74901;DHT22;63461;51.416;6.758;2022-11-20T05:52:42;4.00;99.90
74901;DHT22;63461;51.416;6.758;2022-11-20T05:55:08;4.00;99.90
74901;DHT22;63461;51.416;6.758;2022-11-20T05:57:34;4.00;99.90
74901;DHT22;63461;51.416;6.758;2022-11-20T06:00:00;4.00;99.90
74901;DHT22;63461;51.416;6.758;2022-11-20T06:02:26;4.00;99.90
74901;DHT22;63461;51.416;6.758;2022-11-20T06:04:52;4.00;99.90
74901;DHT22;63461;51.416;6.758;2022-11-20T06:07:17;3.90;99.90
74901;DHT22;63461;51.416;6.758;2022-11-20T06:09:43;4.00;99.90
74901;DHT22;63461;51.416;6.758;2022-11-20T06:12:09;3.90;99.90
74901;DHT22;63461;51.416;6.758;2022-11-20T06:14:35;4.00;99.90
74901;DHT22;63461;51.416;6.758;2022-11-20T06:17:00;4.00;99.90
74901;DHT22;63461;51.416;6.758;2022-11-20T06:19:26;4.00;99.90
74901;DHT22;63461;51.416;6.758;2022-11-20T06:21:52;4.00;99.90
74901;DHT22;63461;51.416;6.758;2022-11-20T06:24:17;4.00;99.90
74901;DHT22;63461;51.416;6.758;2022-11-20T06:26:44;3.90;99.90
74901;DHT22;63461;51.416;6.758;2022-11-20T06:29:10;4.00;99.90
74901;DHT22;63461;51.416;6.758;2022-11-20T06:31:36;4.00;99.90
74901;DHT22;63461;51.416;6.758;2022-11-20T06:34:04;4.00;99.90
74901;DHT22;63461;51.416;6.758;2022-11-20T06:36:31;4.00;99.90
74901;DHT22;63461;51.416;6.758;2022-11-20T06:38:57;4.10;99.90
74901;DHT22;63461;51.416;6.758;2022-11-20T06:41:23;4.10;99.90
74901;DHT22;63461;51.416;6.758;2022-11-20T06:43:50;4.10;99.90
74901;DHT22;63461;51.416;6.758;2022-11-20T06:46:17;4.20;99.90
74901;DHT22;63461;51.416;6.758;2022-11-20T06:48:44;4.10;99.90
74901;DHT22;63461;51.416;6.758;2022-11-20T06:51:10;4.20;99.90
74901;DHT22;63461;51.416;6.758;2022-11-20T06:53:36;4.00;99.90
74901;DHT22;63461;51.416;6.758;2022-11-20T06:56:02;4.10;99.90
74901;DHT22;63461;51.416;6.758;2022-11-20T06:58:30;4.20;99.90
74901;DHT22;63461;51.416;6.758;2022-11-20T07:01:09;4.20;99.90
74901;DHT22;63461;51.416;6.758;2022-11-20T07:03:34;4.10;99.90
74901;DHT22;63461;51.416;6.758;2022-11-20T07:06:01;4.20;99.90
74901;DHT22;63461;51.416;6.758;2022-11-20T07:08:28;4.10;99.90
74901;DHT22;63461;51.416;6.758;2022-11-20T07:10:58;4.10;99.90
74901;DHT22;63461;51.416;6.758;2022-11-20T07:13:24;4.10;99.90
74901;DHT22;63461;51.416;6.758;2022-11-20T07:15:50;4.20;99.90
74901;DHT22;63461;51.416;6.758;2022-11-20T07:18:15;4.20;99.90
74901;DHT22;63461;51.416;6.758;2022-11-20T07:20:41;4.20;99.90
74901;DHT22;63461;51.416;6.758;2022-11-20T07:23:07;4.20;99.90
74901;DHT22;63461;51.416;6.758;2022-11-20T07:25:32;4.30;99.90
74901;DHT22;63461;51.416;6.758;2022-11-20T07:27:59;4.30;99.90
74901;DHT22;63461;51.416;6.758;2022-11-20T07:30:28;4.30;99.90
74901;DHT22;63461;51.416;6.758;2022-11-20T07:32:55;4.30;99.90
74901;DHT22;63461;51.416;6.758;2022-11-20T07:35:22;4.30;99.90
74901;DHT22;63461;51.416;6.758;2022-11-20T07:37:48;4.40;99.90
74901;DHT22;63461;51.416;6.758;2022-11-20T07:40:17;4.40;99.90
74901;DHT22;63461;51.416;6.758;2022-11-20T07:42:50;4.40;99.90
74901;DHT22;63461;51.416;6.758;2022-11-20T07:45:17;4.50;99.90
74901;DHT22;63461;51.416;6.758;2022-11-20T07:47:43;4.50;99.90
74901;DHT22;63461;51.416;6.758;2022-11-20T07:50:09;4.50;99.90
74901;DHT22;63461;51.416;6.758;2022-11-20T07:52:35;4.50;99.90
74901;DHT22;63461;51.416;6.758;2022-11-20T07:55:01;4.50;99.90
74901;DHT22;63461;51.416;6.758;2022-11-20T07:57:27;4.50;99.90
74901;DHT22;63461;51.416;6.758;2022-11-20T07:59:52;4.50;99.90
74901;DHT22;63461;51.416;6.758;2022-11-20T08:02:18;4.60;99.90
74901;DHT22;63461;51.416;6.758;2022-11-20T08:04:44;4.60;99.90
74901;DHT22;63461;51.416;6.758;2022-11-20T08:07:10;4.60;99.90
74901;DHT22;63461;51.416;6.758;2022-11-20T08:09:35;4.60;99.90
74901;DHT22;63461;51.416;6.758;2022-11-20T08:12:01;4.70;99.90
74901;DHT22;63461;51.416;6.758;2022-11-20T08:14:45;4.70;99.90
74901;DHT22;63461;51.416;6.758;2022-11-20T08:17:11;4.60;99.90
74901;DHT22;63461;51.416;6.758;2022-11-20T08:19:37;4.70;99.90
74901;DHT22;63461;51.416;6.758;2022-11-20T08:22:03;4.70;99.90
74901;DHT22;63461;51.416;6.758;2022-11-20T08:24:29;4.80;99.90
74901;DHT22;63461;51.416;6.758;2022-11-20T08:27:00;4.70;99.90
74901;DHT22;63461;51.416;6.758;2022-11-20T08:29:26;4.70;99.90
74901;DHT22;63461;51.416;6.758;2022-11-20T08:31:52;4.80;99.90
74901;DHT22;63461;51.416;6.758;2022-11-20T08:34:18;4.80;99.90
74901;DHT22;63461;51.416;6.758;2022-11-20T08:36:44;4.90;99.90
74901;DHT22;63461;51.416;6.758;2022-11-20T08:39:13;5.00;99.90
74901;DHT22;63461;51.416;6.758;2022-11-20T08:41:39;5.10;99.90
74901;DHT22;63461;51.416;6.758;2022-11-20T08:44:06;5.00;99.90
74901;DHT22;63461;51.416;6.758;2022-11-20T08:46:34;5.00;99.90
74901;DHT22;63461;51.416;6.758;2022-11-20T08:49:01;5.00;99.90
74901;DHT22;63461;51.416;6.758;2022-11-20T08:51:27;5.10;99.90
74901;DHT22;63461;51.416;6.758;2022-11-20T08:53:53;5.10;99.90
74901;DHT22;63461;51.416;6.758;2022-11-20T08:56:19;5.10;99.90
74901;DHT22;63461;51.416;6.758;2022-11-20T08:58:45;5.20;99.90
74901;DHT22;63461;51.416;6.758;2022-11-20T09:01:11;5.30;99.90
74901;DHT22;63461;51.416;6.758;2022-11-20T09:03:36;5.30;99.90
74901;DHT22;63461;51.416;6.758;2022-11-20T09:06:05;5.20;99.90
74901;DHT22;63461;51.416;6.758;2022-11-20T09:08:31;5.20;99.90
74901;DHT22;63461;51.416;6.758;2022-11-20T09:10:58;5.30;99.90
74901;DHT22;63461;51.416;6.758;2022-11-20T09:13:25;5.30;99.90
74901;DHT22;63461;51.416;6.758;2022-11-20T09:15:59;5.30;99.90
74901;DHT22;63461;51.416;6.758;2022-11-20T09:18:27;5.30;99.90
74901;DHT22;63461;51.416;6.758;2022-11-20T09:21:00;5.20;99.90
74901;DHT22;63461;51.416;6.758;2022-11-20T09:23:27;5.20;99.90
74901;DHT22;63461;51.416;6.758;2022-11-20T09:25:56;5.20;99.90
74901;DHT22;63461;51.416;6.758;2022-11-20T09:28:27;5.10;99.90
74901;DHT22;63461;51.416;6.758;2022-11-20T09:30:53;5.00;99.90
74901;DHT22;63461;51.416;6.758;2022-11-20T09:33:19;5.00;99.90
74901;DHT22;63461;51.416;6.758;2022-11-20T09:35:45;5.00;99.90
74901;DHT22;63461;51.416;6.758;2022-11-20T09:38:10;4.90;99.90
74901;DHT22;63461;51.416;6.758;2022-11-20T09:40:51;4.90;99.90
74901;DHT22;63461;51.416;6.758;2022-11-20T09:52:30;4.90;99.90
74901;DHT22;63461;51.416;6.758;2022-11-20T09:54:38;4.90;99.90
74901;DHT22;63461;51.416;6.758;2022-11-20T09:57:10;4.80;99.90
74901;DHT22;63461;51.416;6.758;2022-11-20T09:59:46;4.90;99.90
74901;DHT22;63461;51.416;6.758;2022-11-20T10:02:28;4.90;99.90
74901;DHT22;63461;51.416;6.758;2022-11-20T10:05:05;5.00;99.90
74901;DHT22;63461;51.416;6.758;2022-11-20T10:08:28;5.00;99.90
74901;DHT22;63461;51.416;6.758;2022-11-20T10:10:42;5.00;99.90
74901;DHT22;63461;51.416;6.758;2022-11-20T10:13:17;5.10;99.90
74901;DHT22;63461;51.416;6.758;2022-11-20T10:16:12;5.20;99.90
74901;DHT22;63461;51.416;6.758;2022-11-20T10:27:42;5.50;99.90
74901;DHT22;63461;51.416;6.758;2022-11-20T10:30:15;5.60;99.90
74901;DHT22;63461;51.416;6.758;2022-11-20T10:32:43;5.70;99.90
74901;DHT22;63461;51.416;6.758;2022-11-20T10:35:20;5.70;99.90
74901;DHT22;63461;51.416;6.758;2022-11-20T10:37:51;5.80;99.90
74901;DHT22;63461;51.416;6.758;2022-11-20T10:40:35;5.80;99.90
74901;DHT22;63461;51.416;6.758;2022-11-20T10:45:53;5.80;99.90
74901;DHT22;63461;51.416;6.758;2022-11-20T10:48:24;5.90;99.90
74901;DHT22;63461;51.416;6.758;2022-11-20T10:51:25;5.90;99.90
74901;DHT22;63461;51.416;6.758;2022-11-20T10:56:50;6.00;99.90
74901;DHT22;63461;51.416;6.758;2022-11-20T11:02:42;6.00;99.90
74901;DHT22;63461;51.416;6.758;2022-11-20T11:07:51;6.10;99.90
74901;DHT22;63461;51.416;6.758;2022-11-20T11:12:46;6.10;99.90
74901;DHT22;63461;51.416;6.758;2022-11-20T11:18:30;6.00;99.90
74901;DHT22;63461;51.416;6.758;2022-11-20T11:20:59;6.10;99.90
74901;DHT22;63461;51.416;6.758;2022-11-20T11:23:40;6.10;99.90
74901;DHT22;63461;51.416;6.758;2022-11-20T11:26:20;6.10;99.90
74901;DHT22;63461;51.416;6.758;2022-11-20T11:28:58;6.20;99.90
74901;DHT22;63461;51.416;6.758;2022-11-20T11:31:26;6.20;99.90
74901;DHT22;63461;51.416;6.758;2022-11-20T11:34:04;6.30;99.90
74901;DHT22;63461;51.416;6.758;2022-11-20T11:36:30;6.30;99.90
74901;DHT22;63461;51.416;6.758;2022-11-20T11:38:57;6.30;99.90
74901;DHT22;63461;51.416;6.758;2022-11-20T11:41:25;6.30;99.90
74901;DHT22;63461;51.416;6.758;2022-11-20T11:43:55;6.40;99.90
74901;DHT22;63461;51.416;6.758;2022-11-20T11:46:44;6.30;99.90
74901;DHT22;63461;51.416;6.758;2022-11-20T11:49:19;6.30;99.90
74901;DHT22;63461;51.416;6.758;2022-11-20T11:52:15;6.30;99.90
74901;DHT22;63461;51.416;6.758;2022-11-20T11:54:55;6.40;99.90
74901;DHT22;63461;51.416;6.758;2022-11-20T12:07:50;6.50;99.90
74901;DHT22;63461;51.416;6.758;2022-11-20T12:10:37;6.50;99.90
74901;DHT22;63461;51.416;6.758;2022-11-20T12:13:15;6.50;99.90
74901;DHT22;63461;51.416;6.758;2022-11-20T12:15:45;6.50;99.90
74901;DHT22;63461;51.416;6.758;2022-11-20T12:18:16;6.50;99.90
74901;DHT22;63461;51.416;6.758;2022-11-20T12:21:03;6.60;99.90
74901;DHT22;63461;51.416;6.758;2022-11-20T12:29:22;6.60;99.90
74901;DHT22;63461;51.416;6.758;2022-11-20T12:35:51;6.70;99.90
74901;DHT22;63461;51.416;6.758;2022-11-20T12:43:53;6.70;99.90
74901;DHT22;63461;51.416;6.758;2022-11-20T12:46:46;6.70;99.90
74901;DHT22;63461;51.416;6.758;2022-11-20T12:49:21;6.60;99.90
74901;DHT22;63461;51.416;6.758;2022-11-20T12:52:29;6.70;99.90
74901;DHT22;63461;51.416;6.758;2022-11-20T13:00:15;6.70;99.90
74901;DHT22;63461;51.416;6.758;2022-11-20T13:06:20;6.70;99.90
74901;DHT22;63461;51.416;6.758;2022-11-20T13:08:54;6.70;99.90
74901;DHT22;63461;51.416;6.758;2022-11-20T13:12:25;6.70;99.90
74901;DHT22;63461;51.416;6.758;2022-11-20T13:14:37;6.80;99.90
74901;DHT22;63461;51.416;6.758;2022-11-20T13:19:54;6.80;99.90
74901;DHT22;63461;51.416;6.758;2022-11-20T13:22:45;6.80;99.90
74901;DHT22;63461;51.416;6.758;2022-11-20T13:25:30;6.80;99.90
74901;DHT22;63461;51.416;6.758;2022-11-20T13:27:58;6.80;99.90
74901;DHT22;63461;51.416;6.758;2022-11-20T13:30:26;6.70;99.90
74901;DHT22;63461;51.416;6.758;2022-11-20T13:35:36;6.80;99.90
74901;DHT22;63461;51.416;6.758;2022-11-20T13:38:07;6.80;99.90
74901;DHT22;63461;51.416;6.758;2022-11-20T13:40:36;6.80;99.90
74901;DHT22;63461;51.416;6.758;2022-11-20T13:43:38;6.70;99.90
74901;DHT22;63461;51.416;6.758;2022-11-20T13:46:08;6.80;99.90
74901;DHT22;63461;51.416;6.758;2022-11-20T13:48:38;6.70;99.90
74901;DHT22;63461;51.416;6.758;2022-11-20T13:56:32;6.80;99.90
74901;DHT22;63461;51.416;6.758;2022-11-20T13:59:36;6.80;99.90
74901;DHT22;63461;51.416;6.758;2022-11-20T14:02:11;6.70;99.90
74901;DHT22;63461;51.416;6.758;2022-11-20T14:04:42;6.80;99.90
74901;DHT22;63461;51.416;6.758;2022-11-20T14:07:12;6.70;99.90
74901;DHT22;63461;51.416;6.758;2022-11-20T14:10:29;6.70;99.90
74901;DHT22;63461;51.416;6.758;2022-11-20T14:13:18;6.70;99.90
74901;DHT22;63461;51.416;6.758;2022-11-20T14:15:46;6.80;99.90
74901;DHT22;63461;51.416;6.758;2022-11-20T14:18:15;6.80;99.90
74901;DHT22;63461;51.416;6.758;2022-11-20T14:20:42;6.80;99.90
74901;DHT22;63461;51.416;6.758;2022-11-20T14:23:22;6.80;99.90
74901;DHT22;63461;51.416;6.758;2022-11-20T14:25:48;6.80;99.90
74901;DHT22;63461;51.416;6.758;2022-11-20T14:28:30;6.70;99.90
74901;DHT22;63461;51.416;6.758;2022-11-20T14:30:57;6.80;99.90
74901;DHT22;63461;51.416;6.758;2022-11-20T14:33:29;6.70;99.90
74901;DHT22;63461;51.416;6.758;2022-11-20T14:35:58;6.80;99.90
74901;DHT22;63461;51.416;6.758;2022-11-20T14:38:46;6.80;99.90
74901;DHT22;63461;51.416;6.758;2022-11-20T15:14:49;6.80;99.90
74901;DHT22;63461;51.416;6.758;2022-11-20T16:04:29;6.70;99.90
74901;DHT22;63461;51.416;6.758;2022-11-20T16:08:03;6.70;99.90
74901;DHT22;63461;51.416;6.758;2022-11-20T16:11:03;6.70;99.90
74901;DHT22;63461;51.416;6.758;2022-11-20T16:26:00;6.70;99.90
74901;DHT22;63461;51.416;6.758;2022-11-20T16:29:07;6.70;99.90
74901;DHT22;63461;51.416;6.758;2022-11-20T16:31:47;6.70;99.90
74901;DHT22;63461;51.416;6.758;2022-11-20T16:34:15;6.70;99.90
74901;DHT22;63461;51.416;6.758;2022-11-20T16:37:29;6.70;99.90
74901;DHT22;63461;51.416;6.758;2022-11-20T16:40:40;6.70;99.90
74901;DHT22;63461;51.416;6.758;2022-11-20T16:43:48;6.70;99.90
74901;DHT22;63461;51.416;6.758;2022-11-20T16:46:19;6.80;99.90
74901;DHT22;63461;51.416;6.758;2022-11-20T16:48:55;6.70;99.90
74901;DHT22;63461;51.416;6.758;2022-11-20T16:51:22;6.70;99.90
74901;DHT22;63461;51.416;6.758;2022-11-20T16:53:49;6.80;99.90
74901;DHT22;63461;51.416;6.758;2022-11-20T16:56:28;6.80;99.90
74901;DHT22;63461;51.416;6.758;2022-11-20T16:59:07;6.80;99.90
74901;DHT22;63461;51.416;6.758;2022-11-20T17:10:19;6.90;99.90
74901;DHT22;63461;51.416;6.758;2022-11-20T17:12:45;6.90;99.90
74901;DHT22;63461;51.416;6.758;2022-11-20T17:15:11;6.90;99.90
74901;DHT22;63461;51.416;6.758;2022-11-20T17:17:37;6.90;99.90
74901;DHT22;63461;51.416;6.758;2022-11-20T17:20:03;6.90;99.90
74901;DHT22;63461;51.416;6.758;2022-11-20T17:22:30;6.90;99.90
74901;DHT22;63461;51.416;6.758;2022-11-20T17:24:57;6.90;99.90
74901;DHT22;63461;51.416;6.758;2022-11-20T17:27:23;6.90;99.90
74901;DHT22;63461;51.416;6.758;2022-11-20T17:30:15;6.90;99.90
74901;DHT22;63461;51.416;6.758;2022-11-20T17:33:56;6.90;99.90
74901;DHT22;63461;51.416;6.758;2022-11-20T17:40:14;7.00;99.90
74901;DHT22;63461;51.416;6.758;2022-11-20T17:46:33;7.00;99.90
74901;DHT22;63461;51.416;6.758;2022-11-20T17:49:05;7.00;99.90
74901;DHT22;63461;51.416;6.758;2022-11-20T17:55:41;7.10;99.90
74901;DHT22;63461;51.416;6.758;2022-11-20T17:58:42;7.10;99.90
74901;DHT22;63461;51.416;6.758;2022-11-20T18:01:29;7.10;99.90
74901;DHT22;63461;51.416;6.758;2022-11-20T18:04:26;7.00;99.90
74901;DHT22;63461;51.416;6.758;2022-11-20T18:06:56;7.10;99.90
74901;DHT22;63461;51.416;6.758;2022-11-20T18:09:25;7.10;99.90
74901;DHT22;63461;51.416;6.758;2022-11-20T18:15:48;7.10;99.90
74901;DHT22;63461;51.416;6.758;2022-11-20T18:18:23;7.00;99.90
74901;DHT22;63461;51.416;6.758;2022-11-20T18:33:01;7.10;99.90
74901;DHT22;63461;51.416;6.758;2022-11-20T18:39:42;7.20;99.90
74901;DHT22;63461;51.416;6.758;2022-11-20T18:46:23;7.30;99.90
74901;DHT22;63461;51.416;6.758;2022-11-20T18:49:05;7.30;99.90
74901;DHT22;63461;51.416;6.758;2022-11-20T18:52:00;7.20;99.90
74901;DHT22;63461;51.416;6.758;2022-11-20T18:55:34;7.30;99.90
74901;DHT22;63461;51.416;6.758;2022-11-20T18:59:22;7.30;99.90
74901;DHT22;63461;51.416;6.758;2022-11-20T19:06:24;7.40;99.90
74901;DHT22;63461;51.416;6.758;2022-11-20T19:09:12;7.40;99.90
74901;DHT22;63461;51.416;6.758;2022-11-20T19:11:44;7.40;99.90
74901;DHT22;63461;51.416;6.758;2022-11-20T19:14:10;7.40;99.90
74901;DHT22;63461;51.416;6.758;2022-11-20T19:16:36;7.50;99.90
74901;DHT22;63461;51.416;6.758;2022-11-20T19:19:03;7.40;99.90
74901;DHT22;63461;51.416;6.758;2022-11-20T19:21:32;7.50;99.90
74901;DHT22;63461;51.416;6.758;2022-11-20T19:24:26;7.50;99.90
74901;DHT22;63461;51.416;6.758;2022-11-20T19:26:58;7.50;99.90
74901;DHT22;63461;51.416;6.758;2022-11-20T19:29:28;7.60;99.90
74901;DHT22;63461;51.416;6.758;2022-11-20T19:31:58;7.50;99.90
74901;DHT22;63461;51.416;6.758;2022-11-20T19:34:33;7.60;99.90
74901;DHT22;63461;51.416;6.758;2022-11-20T19:37:14;7.60;99.90
74901;DHT22;63461;51.416;6.758;2022-11-20T19:39:46;7.70;99.90
74901;DHT22;63461;51.416;6.758;2022-11-20T19:46:52;7.80;99.90
74901;DHT22;63461;51.416;6.758;2022-11-20T19:49:18;7.80;99.90
74901;DHT22;63461;51.416;6.758;2022-11-20T19:51:47;7.90;99.90
74901;DHT22;63461;51.416;6.758;2022-11-20T19:54:14;7.90;99.90
74901;DHT22;63461;51.416;6.758;2022-11-20T20:01:45;7.90;99.90
74901;DHT22;63461;51.416;6.758;2022-11-20T20:04:43;8.00;99.90
74901;DHT22;63461;51.416;6.758;2022-11-20T20:07:39;8.00;99.90